FKYS/NSI METAR and TAF weather

Enter ICAO airport designator
Station Type Date Time Source
FKYS METAR 2022/05/24 11:00 UTC NOAA

FKYS 241100Z 23004KT 180V320 9999 BKN014 26/22 Q1019 BECMG BKN016


Station Type Date Time Source
FKYS Decoded METAR 2022/05/24 11:00 UTC NOAA

Yaounde, Cameroon (FKYS) 03-50N 011-31E 760M
May 24, 2022 - 07:00 AM EDT / 2022.05.24 1100 UTC
Wind: from the SW (230 degrees) at 5 MPH (4 KT) (direction variable):0
Visibility: greater than 7 mile(s):0
Sky conditions: mostly cloudy
Temperature: 78 F (26 C)
Dew Point: 71 F (22 C)
Relative Humidity: 78%
Pressure (altimeter): 30.09 in. Hg (1019 hPa)
ob: FKYS 241100Z 23004KT 180V320 9999 BKN014 26/22 Q1019 BECMG BKN016
cycle: 11

Station Type Date Time Source
FKYS TAF 2022/05/24 12:15 UTC NOAA

TAF TAF FKYS 241100Z 2412/2512 30005KT 8000 BKN016
TEMPO 2416/2420 3000 TSRA BKN010 FEW023CB
BECMG 2421/2423 BKN006
BECMG 2509/2511 BKN016

Example: see airport list